Terminal Aerodrome Forecast
Issued by NWS Amarillo, TX

Home | Current Version | Previous Version | Text Only | Print | Product List | Glossary On
Versions: 1 2 3 4 5 6 7 8 9 10 11 12 13 14
000
FTUS44 KAMA 292300
TAFGUY
TAF
KGUY 292320Z 3000/3024 04008KT P6SM OVC100
     FM300500 16006KT P6SM OVC080
     FM301200 18008KT P6SM OVC050
     FM302000 19012KT P6SM OVC025=

USA.gov is the U.S. government's official web portal to all federal, state and local government web resources and services.